Capitol Logistics 1804

Operating for CJT



CYHM
John C. Munro Hamilton International Airport
Hamilton, CA
CYYC
Calgary International Airport
Calgary, CA

Activity Log

Date Flight Route Aircraft Duration
No Flights Yet

Route Details

Aircraft Information
Group: Equipment Varies
Types: A30F,A31F,B738,B744,B752,B762,B763,MD11
Route Data
Demand: V
Distance: 1457nm
Duration: 3h 37m
Recm'd Route: DERLO DAYYY Q140 CESNA Q140 TTAIL ISN PEMDU Q832 VESDO EBGAL5
Origin Wx: CYHM 272000Z 23010KT 200V270 15SM BKN024 BKN130 23/17 A2969 RMK SC5AC1 SLP054 DENSITY ALT 2200FT
Dest. Wx: CYYC 272000Z 29007G20KT 210V310 40SM BKN075 BKN100 OVC200 21/01 A2958 RMK AC5AC2CI1 SLP017 DENSITY ALT 5500FT
Notes:

Financial History
Total Freight: 0lbs
Average Load: 0lbs/flt
Fuel Used: 0lbs
Avg. Fuel Used: 0lbs/flt
Fuel Expense: $0
Avg. Fuel Expense: $0
Avg. Fuel Cost: $0/lbs
Total Gross Income: $0
Pilot Pay: $0
Total Expenses: $0
Total Revenue: $0
Average Revenue: $0